4M9 weather

Corning Municipal Airport
Corning, Arkansas, United States

Public forecast

Using degrees Fahrenheit for public forecast. Weather courtesy of forecast.io.

Current aviation weather report (METAR) for Corning Municipal Airport

Retrieved 2020/07/14 22:35 UTC (22 minutes ago):

K4M9 142235Z AUTO 14007KT 10SM CLR 34/24 A2995 RMK AO2 PWINO

Closest aviation forecast (TAF) to Corning Municipal Airport

Closest forecast is Jonesboro Municipal Airport, 34.4 nm (63.7 km) S. Retrieved 2020/07/14 18:34 UTC (4 hours ago):

TAF KJBR 141732Z 1418/1518 14008KT P6SM SCT050 SCT150 FM150100 12004KT P6SM SCT060 BKN150 FM150900 14005KT P6SM VCSH BKN040 FM151400 18010KT P6SM SCT045 BKN150